AirNav   Air Wisconsin Up To $57,000 Bonus
 
 679 users online  

O64 Port of Catoosa Heliport
Catoosa, Oklahoma, USA

GOING TO CATOOSA?


FAA INFORMATION EFFECTIVE 03 NOVEMBER 2022

Location

FAA Identifier: O64
Lat/Long: 36-13-50.9900N 095-44-22.8200W
36-13.849833N 095-44.380333W
36.2308306,-95.7396722
(estimated)
Elevation: 601 ft. / 183 m (estimated)
Variation: 06E (1990)
From city: 3 miles N of CATOOSA, OK
Time zone: UTC -6 (UTC -5 during Daylight Saving Time)
Zip code: 74015

Heliport Operations

Heliport use: Open to the public
Activation date: 08/1994
Control tower: no
ARTCC: KANSAS CITY CENTER
FSS: MC ALESTER FLIGHT SERVICE STATION
NOTAMs facility: MLC (NOTAM-D service available)
Attendance: IREG
Wind indicator: lighted
Segmented circle: no
Lights: SS-SR

Heliport Communications

CTAF: 122.9
WX ASOS at TUL (7 nm W): PHONE 918-831-6772
WX AWOS-3P at GCM (13 nm E): 119.925 (918-343-0184)
WX ASOS at RVS (17 nm SW): 126.5 (918-299-0740)
WX AWOS-3PT at H71 (20 nm E): 120.1 (918-476-0517)

Nearby radio navigation aids

VOR radial/distance  VOR name  Freq  Var
TULr040/3.1TULSA VORTAC114.4008E
OKMr003/32.8OKMULGEE VOR/DME114.9008E
BVOr152/38.6BARTLESVILLE VOR/DME117.9008E

 
NDB name  Hdg/Dist  Freq  Var  ID
OILLR039/10.833803ETU - ..-

Heliport Services

Airframe service: NONE
Powerplant service: NONE
Bottled oxygen: NONE
Bulk oxygen: NONE

Runway Information

Helipad H1

Dimensions: 50 x 50 ft. / 15 x 15 m
Surface: concrete, in good condition
Runway edge lights: PERI
Operational restrictions: INGRESS/EGRESS 030/210 DEGS.
Traffic pattern: leftleft
Markings: basic, in fair condition

Heliport Ownership and Management from official FAA records

Ownership: Publicly-owned
Owner: CITY OF TULSA - ROGERS COUNTY
5350 CIMARRON RD
CATOOSA, OK 74015
Phone 918-266-2291
PORT AUTHORITY.
Manager: DAVID YARBROUGH
5350 CIMARRON RD
CATOOSA, OK 74015
Phone 918-266-2291
PORT DIRECTOR

Heliport Operational Statistics

Aircraft operations: 6/year *
83% military
17% transient general aviation
* for 12-month period ending 19 November 2020

Additional Remarks

FOR CD CTC TULSA APCH AT 918-831-6714/6720.

Instrument Procedures

There are no published instrument procedures at O64.

Some nearby airports with instrument procedures:

KTUL - Tulsa International Airport (7 nm W)
KGCM - Claremore Regional Airport (13 nm E)
KRVS - Tulsa Riverside Airport (17 nm SW)
H71 - Mid-America Industrial Airport (20 nm E)
KOWP - William R Pogue Municipal Airport (20 nm W)
 
Loc | Ops | Rwys | IFR | FBO | Links
Com | Nav | Svcs | Stats | Notes
Area around O64 (Port of Catoosa Heliport)
 
Road maps at: MapQuest Bing Google
 
Aerial photo
No photo
 
Sectional chart

 
Airport distance calculator
Flying to Port of Catoosa Heliport? Find the distance to fly.

From to O64

Sunrise and sunset
Times for 26-Nov-2022
 Local
(UTC-6)
 Zulu
(UTC)
Morning civil twilight06:4412:44
Sunrise07:1213:12
Sunset17:0923:09
Evening civil twilight17:3723:37

Current date and time
Zulu (UTC)  27-Nov-2022 04:45:26
Local (UTC-6)  26-Nov-2022 22:45:26
 
METAR
KTUL 
7nm W 
270440Z 26007KT 2SM BR OVC002 10/10 A2954 RMK AO2 SFC VIS 3 T01000100
KGCM 
13nm E 
270435Z AUTO 24008KT 1 1/4SM BR OVC003 10/10 A2953 RMK AO2
KRVS 
16nm SW 
270401Z AUTO 21006KT 10SM OVC004 10/09 A2956 RMK AO2 T01000089
KH71 
20nm E 
270435Z AUTO 24008KT 6SM BR OVC003 10/10 A2953 RMK AO2
TAF
KTUL 
7nm W 
262048Z 2621/2718 04007KT 3SM -RA BR OVC007 TEMPO 2621/2701 1SM -DZ BR OVC004 FM270100 04006KT 5SM -SHRA BR OVC005 FM270400 31010KT P6SM OVC008 FM270900 31012KT P6SM OVC015
KRVS 
16nm SW 
262049Z 2621/2718 04006KT 3SM -RA BR OVC007 TEMPO 2621/2701 1SM -DZ BR OVC004 FM270100 04005KT 5SM -SHRA BR OVC005 FM270400 30008KT P6SM OVC008 FM270900 32010KT P6SM OVC015
NOTAMs
Click for the latest NOTAMs
NOTAMs are issued by the DoD/FAA and will open in a separate window not controlled by AirNav.

 

 
 

Would you like to see your business listed on this page?

 If your business provides an interesting product or service to pilots, flight crews, aircraft, or users of the Port of Catoosa Heliport, you should consider listing it here.  To start the listing process, click on the button below
 
Add a business
 

Other Pages about Port of Catoosa Heliport

Update a link
 
Copyright © AirNav, LLC. All rights reserved. Privacy Policy  Contact